createdAt,value
2019-03-13T00:37:46.656Z,8.07
2019-03-13T00:42:42.458Z,6.33
2019-03-13T00:47:38.139Z,5.67
2019-03-13T00:52:33.756Z,5.30
2019-03-13T00:57:29.554Z,5.40
2019-03-13T01:02:39.666Z,5.87
2019-03-13T01:07:35.531Z,6.67
2019-03-13T01:12:31.260Z,6.07
2019-03-13T01:17:26.989Z,5.37
2019-03-13T01:22:22.691Z,5.10
2019-03-13T01:27:18.427Z,4.90
2019-03-13T01:32:34.685Z,5.40
2019-03-13T01:37:30.524Z,4.93
2019-03-13T01:42:26.146Z,5.53
2019-03-13T01:47:21.863Z,5.20
2019-03-13T01:52:17.484Z,6.00
2019-03-13T01:57:13.278Z,5.93
2019-03-13T02:02:08.915Z,5.80
2019-03-13T02:07:04.687Z,5.53
2019-03-13T02:12:00.340Z,5.10
2019-03-13T02:16:56.077Z,5.87
2019-03-13T02:21:51.769Z,5.57
2019-03-13T02:26:47.507Z,5.77
2019-03-13T02:31:43.246Z,5.97
2019-03-13T02:36:38.968Z,5.77
2019-03-13T02:41:34.665Z,6.50
2019-03-13T02:46:30.416Z,6.80
2019-03-13T02:51:26.053Z,6.43
2019-03-13T02:56:21.746Z,6.07
2019-03-13T03:01:39.388Z,5.90
2019-03-13T03:06:35.261Z,5.87
2019-03-13T03:11:30.906Z,5.53
2019-03-13T03:16:27.669Z,5.67
2019-03-13T03:21:23.374Z,5.80
2019-03-13T03:26:19.089Z,6.00
2019-03-13T03:31:14.813Z,5.33
2019-03-13T03:36:09.708Z,5.70
2019-03-13T03:41:05.758Z,5.03
2019-03-13T03:46:01.396Z,5.47
2019-03-13T03:50:57.206Z,4.90
2019-03-13T03:55:53.005Z,5.17
2019-03-13T04:00:48.755Z,4.83
2019-03-13T04:05:44.857Z,5.27
2019-03-13T04:10:40.597Z,6.00
2019-03-13T04:15:36.333Z,5.60
2019-03-13T04:20:32.119Z,4.40
2019-03-13T04:25:32.751Z,5.10
2019-03-13T04:30:28.504Z,4.93
2019-03-13T04:35:24.193Z,5.40
2019-03-13T04:40:19.919Z,5.33
2019-03-13T04:45:15.742Z,5.13
2019-03-13T04:50:11.627Z,4.57
2019-03-13T04:55:07.275Z,4.10
2019-03-13T05:00:03.626Z,3.57
2019-03-13T05:05:00.463Z,3.70
2019-03-13T05:09:56.150Z,4.50
2019-03-13T05:14:51.794Z,9.40
2019-03-13T05:19:47.546Z,5.20
2019-03-13T05:24:43.329Z,9.53
2019-03-13T05:29:39.101Z,14.73
2019-03-13T05:34:34.833Z,5.63
2019-03-13T05:39:31.257Z,4.77
2019-03-13T05:44:26.964Z,4.83
2019-03-13T05:49:22.728Z,4.40
2019-03-13T05:54:18.533Z,4.60
2019-03-13T05:59:14.209Z,4.50
2019-03-13T06:04:10.166Z,4.63
2019-03-13T06:09:07.910Z,5.80
2019-03-13T06:14:03.642Z,6.43
2019-03-13T06:18:59.427Z,5.90
2019-03-13T06:23:55.137Z,5.77
2019-03-13T06:28:50.901Z,6.43
2019-03-13T06:33:46.780Z,7.10
2019-03-13T06:38:42.546Z,6.77
2019-03-13T06:43:38.340Z,5.77
2019-03-13T06:48:34.142Z,4.50
2019-03-13T06:53:29.904Z,4.50
2019-03-13T06:58:37.694Z,6.83
2019-03-13T07:03:55.110Z,6.23
2019-03-13T07:09:18.790Z,7.33
2019-03-13T07:14:22.806Z,8.20
2019-03-13T07:19:40.596Z,6.23
2019-03-13T07:25:13.306Z,5.20
2019-03-13T07:30:26.836Z,5.70
2019-03-13T07:35:34.561Z,5.47
2019-03-13T07:40:40.221Z,5.10
2019-03-13T07:45:55.381Z,6.43
2019-03-13T07:51:09.772Z,52.87
2019-03-13T07:56:33.645Z,11.57
2019-03-13T08:02:07.146Z,6.97
2019-03-13T08:07:20.593Z,6.30
2019-03-13T08:12:35.564Z,21.33
2019-03-13T08:17:49.675Z,6.67
2019-03-13T08:23:19.687Z,10.27
2019-03-13T08:28:32.981Z,7.87
2019-03-13T08:33:56.747Z,8.50
2019-03-13T08:39:04.823Z,8.10
2019-03-13T08:44:27.100Z,6.90
2019-03-13T08:49:33.271Z,6.47
2019-03-13T08:54:48.536Z,7.17
2019-03-13T09:00:06.296Z,7.60
2019-03-13T09:05:26.974Z,7.37
2019-03-13T09:10:40.134Z,7.23
2019-03-13T09:16:13.222Z,9.63
2019-03-13T09:21:33.421Z,8.23
2019-03-13T09:26:45.984Z,7.90
2019-03-13T09:31:59.320Z,8.07
2019-03-13T09:37:32.137Z,7.70
2019-03-13T09:42:40.597Z,8.33
2019-03-13T09:47:59.434Z,7.17
2019-03-13T09:53:17.149Z,9.27
2019-03-13T09:58:40.300Z,7.03
2019-03-13T10:04:00.392Z,7.47
2019-03-13T10:09:08.968Z,5.13
2019-03-13T10:14:26.575Z,5.47
2019-03-13T10:19:46.979Z,4.23
2019-03-13T10:25:04.624Z,4.77
2019-03-13T10:30:12.997Z,5.27
2019-03-13T10:35:16.275Z,4.80
2019-03-13T10:40:30.042Z,6.20
2019-03-13T10:45:41.822Z,5.50
2019-03-13T10:51:10.037Z,4.10
2019-03-13T10:56:24.129Z,4.00
2019-03-13T11:01:36.487Z,3.57
2019-03-13T11:06:55.479Z,4.07
2019-03-13T11:12:16.843Z,4.80
2019-03-13T11:17:34.536Z,4.40
2019-03-13T11:22:52.292Z,5.27
2019-03-13T11:28:15.822Z,6.30
2019-03-13T11:33:25.643Z,5.10
2019-03-13T11:38:40.371Z,5.00
2019-03-13T11:44:04.472Z,4.57
2019-03-13T11:49:25.117Z,4.03
2019-03-13T11:54:27.505Z,3.27
2019-03-13T11:59:45.334Z,3.20
2019-03-13T12:05:06.079Z,3.83
2019-03-13T12:10:29.624Z,3.70
2019-03-13T12:15:40.129Z,2.93
2019-03-13T12:20:59.437Z,3.50
2019-03-13T12:26:04.580Z,3.27
2019-03-13T12:31:09.583Z,4.60
2019-03-13T12:36:27.321Z,4.10
2019-03-13T12:41:42.080Z,4.40
2019-03-13T12:47:03.024Z,3.00
2019-03-13T12:52:17.833Z,3.00
2019-03-13T12:57:31.096Z,2.50
2019-03-13T13:02:48.827Z,2.87
2019-03-13T13:08:02.710Z,3.20
2019-03-13T13:13:15.841Z,3.10
2019-03-13T13:18:30.500Z,3.20
2019-03-13T13:23:26.434Z,3.33
2019-03-13T13:28:22.276Z,3.60
2019-03-13T13:33:19.952Z,3.80
2019-03-13T13:38:15.738Z,4.40
2019-03-13T13:43:11.544Z,3.70
2019-03-13T13:48:07.552Z,3.10
2019-03-13T13:53:03.948Z,3.67
2019-03-13T13:57:59.848Z,3.33
2019-03-13T14:02:55.684Z,3.87
2019-03-13T14:07:51.625Z,4.17
2019-03-13T14:12:47.545Z,3.63
2019-03-13T14:17:43.533Z,3.13
2019-03-13T14:22:40.363Z,2.60
2019-03-13T14:27:36.397Z,2.13
2019-03-13T14:32:32.110Z,2.50
2019-03-13T14:37:27.896Z,2.60
2019-03-13T14:42:23.850Z,2.27
2019-03-13T14:47:19.823Z,2.70
2019-03-13T14:52:15.540Z,2.83
2019-03-13T14:57:12.282Z,2.60
2019-03-13T15:02:09.001Z,2.77
2019-03-13T15:07:04.753Z,3.00
2019-03-13T15:12:00.865Z,3.60
2019-03-13T15:16:57.387Z,3.20
2019-03-13T15:21:54.234Z,2.30
2019-03-13T15:26:50.111Z,2.10
2019-03-13T15:31:45.857Z,2.80
2019-03-13T15:36:41.636Z,4.07
2019-03-13T15:41:37.265Z,2.67
2019-03-13T15:46:33.151Z,6.17
2019-03-13T15:51:28.864Z,4.57
2019-03-13T15:56:25.017Z,2.80
2019-03-13T16:01:20.692Z,2.90
2019-03-13T16:06:16.438Z,3.30
2019-03-13T16:11:12.080Z,3.43
2019-03-13T16:16:07.773Z,3.17
2019-03-13T16:21:03.625Z,3.63
2019-03-13T16:25:59.360Z,3.73
2019-03-13T16:30:55.815Z,4.97
2019-03-13T16:35:52.156Z,6.57
2019-03-13T16:40:47.809Z,5.00
2019-03-13T16:45:43.763Z,4.90
2019-03-13T16:50:40.461Z,5.63
2019-03-13T16:55:36.329Z,5.97
2019-03-13T17:00:32.548Z,6.83
2019-03-13T17:05:28.489Z,7.30
2019-03-13T17:10:24.412Z,6.50
2019-03-13T17:15:21.453Z,5.93
2019-03-13T17:20:19.252Z,6.30
2019-03-13T17:25:17.184Z,6.77
2019-03-13T17:30:16.145Z,9.30
2019-03-13T17:35:12.108Z,7.87
2019-03-13T17:40:09.939Z,8.17
2019-03-13T17:45:06.441Z,9.93
2019-03-13T17:50:02.418Z,46.07
2019-03-13T17:55:00.546Z,21.13
2019-03-13T17:59:57.473Z,10.37
2019-03-13T18:04:53.323Z,10.50
2019-03-13T18:09:49.120Z,9.27
2019-03-13T18:14:45.176Z,9.73
2019-03-13T18:19:40.943Z,11.07
2019-03-13T18:24:36.710Z,10.60
2019-03-13T18:29:32.512Z,9.67
2019-03-13T18:34:28.397Z,11.33
2019-03-13T18:39:24.367Z,12.20
2019-03-13T18:44:20.265Z,12.93
2019-03-13T18:49:16.168Z,15.20
2019-03-13T18:54:11.994Z,25.60
2019-03-13T18:59:06.009Z,11.13
2019-03-13T19:04:01.957Z,8.80
2019-03-13T19:08:58.641Z,7.50
2019-03-13T19:13:54.448Z,8.37
2019-03-13T19:18:50.300Z,12.00
2019-03-13T19:23:46.208Z,12.83
2019-03-13T19:28:42.109Z,12.93
2019-03-13T19:33:37.788Z,12.77
2019-03-13T19:38:33.568Z,13.03
2019-03-13T19:43:29.503Z,12.20
2019-03-13T19:48:25.374Z,12.37
2019-03-13T19:53:21.145Z,13.07
2019-03-13T19:58:17.142Z,15.37
2019-03-13T20:03:12.997Z,14.63
2019-03-13T20:08:08.918Z,15.40
2019-03-13T20:13:04.788Z,15.50
2019-03-13T20:18:00.748Z,15.57
2019-03-13T20:22:58.811Z,14.43
2019-03-13T20:27:55.448Z,14.73
2019-03-13T20:32:52.055Z,14.27
2019-03-13T20:37:49.607Z,14.50
2019-03-13T20:42:47.856Z,14.60
2019-03-13T20:47:45.279Z,13.57
2019-03-13T20:52:45.825Z,13.27
2019-03-13T20:57:42.676Z,12.63
2019-03-13T21:02:40.417Z,11.53
2019-03-13T21:07:36.810Z,11.03
2019-03-13T21:12:33.449Z,11.40
2019-03-13T21:17:30.476Z,11.57
2019-03-13T21:22:27.339Z,16.30
2019-03-13T21:27:24.882Z,12.73
2019-03-13T21:32:22.558Z,11.67
2019-03-13T21:37:19.309Z,11.87
2019-03-13T21:42:16.518Z,13.50
2019-03-13T21:47:13.696Z,12.80
2019-03-13T21:52:10.707Z,13.00
2019-03-13T21:57:06.465Z,13.63
2019-03-13T22:02:04.679Z,13.90
2019-03-13T22:07:00.484Z,14.93
2019-03-13T22:11:57.390Z,13.70
2019-03-13T22:16:53.147Z,12.17
2019-03-13T22:21:48.861Z,13.63
2019-03-13T22:26:44.649Z,14.23
2019-03-13T22:31:40.452Z,15.17
2019-03-13T22:36:36.330Z,16.70
2019-03-13T22:41:32.126Z,18.40
2019-03-13T22:46:27.896Z,16.13
2019-03-13T22:51:23.858Z,16.03
2019-03-13T22:56:22.069Z,17.23
2019-03-13T23:01:19.230Z,16.43
2019-03-13T23:06:17.126Z,15.60
2019-03-13T23:11:12.884Z,15.77
2019-03-13T23:16:08.623Z,15.83
2019-03-13T23:21:04.347Z,17.50
2019-03-13T23:26:00.139Z,18.40
2019-03-13T23:30:55.917Z,17.57
2019-03-13T23:35:51.569Z,16.47
2019-03-13T23:40:47.329Z,17.13
2019-03-13T23:45:43.098Z,16.83
2019-03-13T23:50:38.884Z,16.60
2019-03-13T23:55:34.568Z,15.13
